createdAt,value
2019-04-06T00:00:17.016Z,5.54
2019-04-06T00:01:15.990Z,5.63
2019-04-06T00:03:09.763Z,5.63
2019-04-06T00:04:10.564Z,5.63
2019-04-06T00:06:03.048Z,5.64
2019-04-06T00:07:02.683Z,5.67
2019-04-06T00:08:56.488Z,5.78
2019-04-06T00:09:55.364Z,5.82
2019-04-06T00:11:50.284Z,5.76
2019-04-06T00:12:51.138Z,5.86
2019-04-06T00:14:43.920Z,5.86
2019-04-06T00:15:43.583Z,5.83
2019-04-06T00:17:37.147Z,5.83
2019-04-06T00:18:36.253Z,5.91
2019-04-06T00:20:30.107Z,5.96
2019-04-06T00:21:29.218Z,5.94
2019-04-06T00:23:23.789Z,5.99
2019-04-06T00:24:22.617Z,6.04
2019-04-06T00:26:28.246Z,6.04
2019-04-06T00:27:27.840Z,6.08
2019-04-06T00:29:21.125Z,6.19
2019-04-06T00:30:20.818Z,6.21
2019-04-06T00:32:14.626Z,6.22
2019-04-06T00:33:14.544Z,6.15
2019-04-06T00:35:08.574Z,6.19
2019-04-06T00:36:09.822Z,6.21
2019-04-06T00:38:02.053Z,6.25
2019-04-06T00:39:03.022Z,6.27
2019-04-06T00:40:55.787Z,6.33
2019-04-06T00:41:54.931Z,6.33
2019-04-06T00:43:49.482Z,6.38
2019-04-06T00:44:48.106Z,6.33
2019-04-06T00:46:42.168Z,6.43
2019-04-06T00:47:41.784Z,6.33
2019-04-06T00:49:37.169Z,6.36
2019-04-06T00:50:35.581Z,6.40
2019-04-06T00:52:29.904Z,6.49
2019-04-06T00:53:28.472Z,6.49
2019-04-06T00:55:22.341Z,6.30
2019-04-06T00:56:21.471Z,6.41
2019-04-06T00:58:15.323Z,6.37
2019-04-06T00:59:14.260Z,6.40
2019-04-06T01:01:09.276Z,6.34
2019-04-06T01:02:07.701Z,6.49
2019-04-06T01:04:01.731Z,6.46
2019-04-06T01:05:00.231Z,6.41
2019-04-06T01:06:55.686Z,6.41
2019-04-06T01:07:54.836Z,6.46
2019-04-06T01:09:48.143Z,6.43
2019-04-06T01:10:48.576Z,6.49
2019-04-06T01:12:41.571Z,6.56
2019-04-06T01:13:40.727Z,6.56
2019-04-06T01:15:34.694Z,6.58
2019-04-06T01:16:33.844Z,6.62
2019-04-06T01:18:27.768Z,6.71
2019-04-06T01:19:28.216Z,6.71
2019-04-06T01:21:21.981Z,6.69
2019-04-06T01:22:21.147Z,6.64
2019-04-06T01:24:15.395Z,6.70
2019-04-06T01:25:15.823Z,6.80
2019-04-06T01:27:07.890Z,6.84
2019-04-06T01:28:07.840Z,6.84
2019-04-06T01:30:01.362Z,6.70
2019-04-06T01:31:00.415Z,6.69
2019-04-06T01:32:55.849Z,6.71
2019-04-06T01:33:56.049Z,6.79
2019-04-06T01:35:48.315Z,6.81
2019-04-06T01:36:48.370Z,6.80
2019-04-06T01:38:53.992Z,6.80
2019-04-06T01:39:54.415Z,6.79
2019-04-06T01:41:47.230Z,6.81
2019-04-06T01:42:46.791Z,6.92
2019-04-06T01:44:58.604Z,7.12
2019-04-06T01:45:57.584Z,7.15
2019-04-06T01:47:52.141Z,7.17
2019-04-06T01:48:51.548Z,7.20
2019-04-06T01:50:44.554Z,7.24
2019-04-06T01:51:44.571Z,7.20
2019-04-06T01:53:39.671Z,7.20
2019-04-06T01:54:38.610Z,7.09
2019-04-06T01:56:32.098Z,7.05
2019-04-06T01:57:31.962Z,6.91
2019-04-06T01:59:25.564Z,6.95
2019-04-06T02:00:25.291Z,6.97
2019-04-06T02:02:18.553Z,7.09
2019-04-06T02:03:18.104Z,7.05
2019-04-06T02:05:12.783Z,7.20
2019-04-06T02:06:11.154Z,7.32
2019-04-06T02:08:06.128Z,7.37
2019-04-06T02:09:05.918Z,7.32
2019-04-06T02:11:00.101Z,7.20
2019-04-06T02:11:59.587Z,7.17
2019-04-06T02:13:53.699Z,7.17
2019-04-06T02:14:53.099Z,7.17
2019-04-06T02:16:46.625Z,7.21
2019-04-06T02:17:46.561Z,7.15
2019-04-06T02:19:52.332Z,7.28
2019-04-06T02:20:51.708Z,7.28
2019-04-06T02:22:45.763Z,7.27
2019-04-06T02:23:46.676Z,7.31
2019-04-06T02:25:39.391Z,7.39
2019-04-06T02:26:38.878Z,7.43
2019-04-06T02:28:33.943Z,7.39
2019-04-06T02:29:33.059Z,7.43
2019-04-06T02:31:25.765Z,7.48
2019-04-06T02:32:26.183Z,7.49
2019-04-06T02:34:19.202Z,7.50
2019-04-06T02:35:19.648Z,7.50
2019-04-06T02:37:12.164Z,7.49
2019-04-06T02:38:11.205Z,7.60
2019-04-06T02:40:07.440Z,7.50
2019-04-06T02:41:04.148Z,7.52
2019-04-06T02:42:59.090Z,7.60
2019-04-06T02:43:59.834Z,7.63
2019-04-06T02:45:52.835Z,7.55
2019-04-06T02:46:52.465Z,7.53
2019-04-06T02:48:44.999Z,7.53
2019-04-06T02:49:44.937Z,7.52
2019-04-06T02:51:38.503Z,7.68
2019-04-06T02:52:37.455Z,7.60
2019-04-06T02:54:32.440Z,7.74
2019-04-06T02:55:32.358Z,7.71
2019-04-06T02:57:25.905Z,7.71
2019-04-06T02:58:25.336Z,7.64
2019-04-06T03:00:19.387Z,7.77
2019-04-06T03:01:18.790Z,7.77
2019-04-06T03:03:11.310Z,7.71
2019-04-06T03:04:11.013Z,7.72
2019-04-06T03:06:05.004Z,7.71
2019-04-06T03:07:04.659Z,7.75
2019-04-06T03:08:57.876Z,7.85
2019-04-06T03:09:57.213Z,7.83
2019-04-06T03:11:50.707Z,7.75
2019-04-06T03:12:50.957Z,7.79
2019-04-06T03:14:45.195Z,7.89
2019-04-06T03:15:45.877Z,7.95
2019-04-06T03:17:38.153Z,7.97
2019-04-06T03:18:38.069Z,7.92
2019-04-06T03:20:31.161Z,7.71
2019-04-06T03:21:30.819Z,7.79
2019-04-06T03:23:25.365Z,7.77
2019-04-06T03:24:24.073Z,7.60
2019-04-06T03:26:19.920Z,7.69
2019-04-06T03:27:19.069Z,7.72
2019-04-06T03:29:12.186Z,7.71
2019-04-06T03:30:11.415Z,7.71
2019-04-06T03:32:04.554Z,7.71
2019-04-06T03:33:04.992Z,7.75
2019-04-06T03:34:59.032Z,7.79
2019-04-06T03:35:59.443Z,7.69
2019-04-06T03:37:52.524Z,7.71
2019-04-06T03:38:51.863Z,7.75
2019-04-06T03:40:45.922Z,7.72
2019-04-06T03:41:45.921Z,7.80
2019-04-06T03:43:38.398Z,7.69
2019-04-06T03:44:38.179Z,7.75
2019-04-06T03:46:31.937Z,7.82
2019-04-06T03:47:32.851Z,7.80
2019-04-06T03:49:25.088Z,7.89
2019-04-06T03:50:24.475Z,7.82
2019-04-06T03:52:17.377Z,7.93
2019-04-06T03:53:17.561Z,7.93
2019-04-06T03:55:10.383Z,7.93
2019-04-06T03:56:10.774Z,7.90
2019-04-06T03:58:03.301Z,7.92
2019-04-06T03:59:03.199Z,7.97
2019-04-06T04:00:57.260Z,7.90
2019-04-06T04:01:55.762Z,7.98
2019-04-06T04:03:49.201Z,7.97
2019-04-06T04:04:49.699Z,7.92
2019-04-06T04:06:44.201Z,7.90
2019-04-06T04:07:43.279Z,7.92
2019-04-06T04:09:36.642Z,7.97
2019-04-06T04:10:37.849Z,7.86
2019-04-06T04:12:29.595Z,7.87
2019-04-06T04:13:29.486Z,7.93
2019-04-06T04:15:23.050Z,7.89
2019-04-06T04:16:22.111Z,7.85
2019-04-06T04:18:16.273Z,7.87
2019-04-06T04:19:15.145Z,7.93
2019-04-06T04:21:09.951Z,7.86
2019-04-06T04:22:09.813Z,7.93
2019-04-06T04:24:03.011Z,7.79
2019-04-06T04:25:02.565Z,7.92
2019-04-06T04:26:56.373Z,7.83
2019-04-06T04:27:55.616Z,7.68
2019-04-06T04:29:48.838Z,7.75
2019-04-06T04:30:48.723Z,7.79
2019-04-06T04:32:41.776Z,7.77
2019-04-06T04:33:41.359Z,7.74
2019-04-06T04:35:34.740Z,7.79
2019-04-06T04:36:35.209Z,7.72
2019-04-06T04:38:27.825Z,7.74
2019-04-06T04:39:28.205Z,7.68
2019-04-06T04:41:20.749Z,7.72
2019-04-06T04:42:20.641Z,7.72
2019-04-06T04:44:14.146Z,7.77
2019-04-06T04:45:14.171Z,7.68
2019-04-06T04:47:07.220Z,7.69
2019-04-06T04:48:06.707Z,7.63
2019-04-06T04:50:00.672Z,7.58
2019-04-06T04:50:59.761Z,7.63
2019-04-06T04:52:53.079Z,7.61
2019-04-06T04:53:53.036Z,7.58
2019-04-06T04:55:46.087Z,7.75
2019-04-06T04:56:45.569Z,7.74
2019-04-06T04:58:41.009Z,7.77
2019-04-06T04:59:40.253Z,7.72
2019-04-06T05:01:34.323Z,7.74
2019-04-06T05:02:33.048Z,7.77
2019-04-06T05:04:27.177Z,7.92
2019-04-06T05:05:26.124Z,7.80
2019-04-06T05:07:19.989Z,7.90
2019-04-06T05:08:19.918Z,7.93
2019-04-06T05:10:13.084Z,8.00
2019-04-06T05:11:15.492Z,8.00
2019-04-06T05:13:06.239Z,7.80
2019-04-06T05:14:05.891Z,7.77
2019-04-06T05:15:59.775Z,7.71
2019-04-06T05:16:59.776Z,7.71
2019-04-06T05:18:52.766Z,7.72
2019-04-06T05:19:52.688Z,7.64
2019-04-06T05:21:45.241Z,7.63
2019-04-06T05:22:45.071Z,7.67
2019-04-06T05:24:39.258Z,7.68
2019-04-06T05:25:38.938Z,7.72
2019-04-06T05:27:32.220Z,7.63
2019-04-06T05:28:32.188Z,7.71
2019-04-06T05:30:25.164Z,7.61
2019-04-06T05:31:24.225Z,7.60
2019-04-06T05:33:18.006Z,7.69
2019-04-06T05:34:17.655Z,7.74
2019-04-06T05:36:11.113Z,7.79
2019-04-06T05:37:10.686Z,7.69
2019-04-06T05:39:04.579Z,7.79
2019-04-06T05:40:04.509Z,7.74
2019-04-06T05:41:57.679Z,7.90
2019-04-06T05:42:56.644Z,7.95
2019-04-06T05:44:51.521Z,7.93
2019-04-06T05:45:51.064Z,8.00
2019-04-06T05:47:44.848Z,7.89
2019-04-06T05:48:44.139Z,7.95
2019-04-06T05:50:37.978Z,8.01
2019-04-06T05:51:37.355Z,8.04
2019-04-06T05:52:37.067Z,8.15
2019-04-06T05:53:36.920Z,8.07
2019-04-06T05:54:36.892Z,8.04
2019-04-06T05:55:37.960Z,8.04
2019-04-06T05:56:36.652Z,7.93
2019-04-06T05:57:37.567Z,7.92
2019-04-06T05:58:40.294Z,7.87
2019-04-06T05:59:39.912Z,7.89
2019-04-06T06:00:40.141Z,7.89
2019-04-06T06:01:40.276Z,7.79
2019-04-06T06:02:40.292Z,7.87
2019-04-06T06:03:40.147Z,7.87
2019-04-06T06:04:36.383Z,7.90
2019-04-06T06:05:36.363Z,7.93
2019-04-06T06:06:36.298Z,7.98
2019-04-06T06:07:36.285Z,8.01
2019-04-06T06:08:36.556Z,7.92
2019-04-06T06:09:36.401Z,7.93
2019-04-06T06:10:38.303Z,7.97
2019-04-06T06:11:36.097Z,8.05
2019-04-06T06:12:36.072Z,8.18
2019-04-06T06:13:36.043Z,8.15
2019-04-06T06:14:35.997Z,8.19
2019-04-06T06:15:36.152Z,8.29
2019-04-06T06:16:35.911Z,8.28
2019-04-06T06:17:35.882Z,8.34
2019-04-06T06:18:35.829Z,8.36
2019-04-06T06:19:35.800Z,8.37
2019-04-06T06:20:35.774Z,8.36
2019-04-06T06:21:35.726Z,8.36
2019-04-06T06:22:35.706Z,8.36
2019-04-06T06:23:35.661Z,8.33
2019-04-06T06:24:35.618Z,8.26
2019-04-06T06:25:35.574Z,8.23
2019-04-06T06:26:35.772Z,8.30
2019-04-06T06:27:35.510Z,8.23
2019-04-06T06:28:35.452Z,8.25
2019-04-06T06:29:35.461Z,8.23
2019-04-06T06:30:35.377Z,8.33
2019-04-06T06:31:35.380Z,8.29
2019-04-06T06:32:35.312Z,8.40
2019-04-06T06:33:35.589Z,8.44
2019-04-06T06:34:35.227Z,8.41
2019-04-06T06:35:35.304Z,8.45
2019-04-06T06:36:35.147Z,8.47
2019-04-06T06:37:35.150Z,8.48
2019-04-06T06:38:35.108Z,8.38
2019-04-06T06:39:35.059Z,8.47
2019-04-06T06:40:35.049Z,8.52
2019-04-06T06:41:34.964Z,8.48
2019-04-06T06:42:34.994Z,8.56
2019-04-06T06:43:34.914Z,8.73
2019-04-06T06:44:34.858Z,8.68
2019-04-06T06:45:34.833Z,8.63
2019-04-06T06:46:34.822Z,8.63
2019-04-06T06:47:34.801Z,8.73
2019-04-06T06:48:34.708Z,8.83
2019-04-06T06:49:34.656Z,8.84
2019-04-06T06:50:34.769Z,8.92
2019-04-06T06:51:34.617Z,8.98
2019-04-06T06:52:34.785Z,9.18
2019-04-06T06:53:34.647Z,9.20
2019-04-06T06:54:34.547Z,9.33
2019-04-06T06:55:34.440Z,9.38
2019-04-06T06:56:34.417Z,9.53
2019-04-06T06:57:34.432Z,9.79
2019-04-06T06:58:34.437Z,10.08
2019-04-06T06:59:34.318Z,10.36
2019-04-06T07:00:34.255Z,10.42
2019-04-06T07:01:34.312Z,10.64
2019-04-06T07:02:34.186Z,10.61
2019-04-06T07:03:34.198Z,10.60
2019-04-06T07:04:34.129Z,10.64
2019-04-06T07:05:34.094Z,10.56
2019-04-06T07:06:34.117Z,10.56
2019-04-06T07:07:34.126Z,10.76
2019-04-06T07:08:34.027Z,10.59
2019-04-06T07:09:34.129Z,10.64
2019-04-06T07:10:33.918Z,10.67
2019-04-06T07:11:33.872Z,10.45
2019-04-06T07:12:33.853Z,10.25
2019-04-06T07:13:33.801Z,10.29
2019-04-06T07:14:33.778Z,10.08
2019-04-06T07:15:34.024Z,9.96
2019-04-06T07:16:33.708Z,9.93
2019-04-06T07:17:33.665Z,9.89
2019-04-06T07:18:33.651Z,10.02
2019-04-06T07:19:33.575Z,10.27
2019-04-06T07:20:33.604Z,10.33
2019-04-06T07:21:33.527Z,10.29
2019-04-06T07:22:33.476Z,10.15
2019-04-06T07:23:33.446Z,10.12
2019-04-06T07:24:33.427Z,10.09
2019-04-06T07:25:33.383Z,10.08
2019-04-06T07:26:33.359Z,10.17
2019-04-06T07:27:33.321Z,10.17
2019-04-06T07:28:38.394Z,10.11
2019-04-06T07:29:33.280Z,10.17
2019-04-06T07:30:33.221Z,10.29
2019-04-06T07:31:33.164Z,10.40
2019-04-06T07:32:33.150Z,10.23
2019-04-06T07:33:33.176Z,10.48
2019-04-06T07:34:33.056Z,10.73
2019-04-06T07:35:33.145Z,11.03
2019-04-06T07:36:33.026Z,11.44
2019-04-06T07:37:32.978Z,11.88
2019-04-06T07:38:32.917Z,12.29
2019-04-06T07:39:32.893Z,12.62
2019-04-06T07:40:32.843Z,13.14
2019-04-06T07:41:32.861Z,13.15
2019-04-06T07:42:32.836Z,12.96
2019-04-06T07:43:32.763Z,13.10
2019-04-06T07:44:32.769Z,13.25
2019-04-06T07:45:32.748Z,13.57
2019-04-06T07:46:32.720Z,14.03
2019-04-06T07:47:32.615Z,14.36
2019-04-06T07:48:32.567Z,14.33
2019-04-06T07:49:32.539Z,14.25
2019-04-06T07:50:32.549Z,14.28
2019-04-06T07:51:32.543Z,14.09
2019-04-06T07:52:32.465Z,14.37
2019-04-06T07:53:33.224Z,15.71
2019-04-06T07:54:32.530Z,16.79
2019-04-06T07:55:32.380Z,17.86
2019-04-06T07:56:32.343Z,18.08
2019-04-06T07:57:32.312Z,18.27
2019-04-06T07:58:32.321Z,18.75
2019-04-06T07:59:32.475Z,17.96
2019-04-06T08:00:32.192Z,17.23
2019-04-06T08:01:32.402Z,16.91
2019-04-06T08:02:32.130Z,16.33
2019-04-06T08:03:32.130Z,15.97
2019-04-06T08:04:32.113Z,16.53
2019-04-06T08:05:32.045Z,16.82
2019-04-06T08:06:32.037Z,17.08
2019-04-06T08:07:32.028Z,17.06
2019-04-06T08:08:32.000Z,17.07
2019-04-06T08:09:31.965Z,16.33
2019-04-06T08:10:31.914Z,16.38
2019-04-06T08:11:31.940Z,17.31
2019-04-06T08:12:31.893Z,18.02
2019-04-06T08:13:31.834Z,18.63
2019-04-06T08:14:31.819Z,19.16
2019-04-06T08:15:31.938Z,19.48
2019-04-06T08:16:31.739Z,19.39
2019-04-06T08:17:31.910Z,18.88
2019-04-06T08:18:31.703Z,18.60
2019-04-06T08:19:31.846Z,18.37
2019-04-06T08:20:31.642Z,18.44
2019-04-06T08:21:31.623Z,18.26
2019-04-06T08:22:31.628Z,18.51
2019-04-06T08:23:31.570Z,18.75
2019-04-06T08:24:31.584Z,19.02
2019-04-06T08:25:31.530Z,19.39
2019-04-06T08:26:31.596Z,19.80
2019-04-06T08:27:31.539Z,18.60
2019-04-06T08:28:31.449Z,17.97
2019-04-06T08:29:31.413Z,18.50
2019-04-06T08:30:31.410Z,18.82
2019-04-06T08:31:31.388Z,19.36
2019-04-06T08:32:31.360Z,19.61
2019-04-06T08:33:31.366Z,19.19
2019-04-06T08:34:31.304Z,19.54
2019-04-06T08:35:31.439Z,18.80
2019-04-06T08:36:31.383Z,18.00
2019-04-06T08:37:31.283Z,18.02
2019-04-06T08:38:31.480Z,18.23
2019-04-06T08:39:31.204Z,18.57
2019-04-06T08:40:31.222Z,18.63
2019-04-06T08:41:31.146Z,18.81
2019-04-06T08:42:31.163Z,19.18
2019-04-06T08:43:31.124Z,18.63
2019-04-06T08:44:31.193Z,18.81
2019-04-06T08:45:31.059Z,18.90
2019-04-06T08:46:31.010Z,19.41
2019-04-06T08:47:31.516Z,19.51
2019-04-06T08:48:30.982Z,19.66
2019-04-06T08:49:31.468Z,19.33
2019-04-06T08:50:30.927Z,19.43
2019-04-06T08:51:31.003Z,19.32
2019-04-06T08:52:31.095Z,19.22
2019-04-06T08:53:30.868Z,18.12
2019-04-06T08:54:30.859Z,17.79
2019-04-06T08:55:30.847Z,18.35
2019-04-06T08:56:30.782Z,18.63
2019-04-06T08:57:30.811Z,18.73
2019-04-06T08:58:30.775Z,19.06
2019-04-06T08:59:30.722Z,19.14
2019-04-06T09:00:30.702Z,18.80
2019-04-06T09:01:30.698Z,18.69
2019-04-06T09:02:30.749Z,18.70
2019-04-06T09:03:30.662Z,19.37
2019-04-06T09:04:30.646Z,20.21
2019-04-06T09:05:30.603Z,20.91
2019-04-06T09:06:30.878Z,21.61
2019-04-06T09:07:31.354Z,22.07
2019-04-06T09:08:30.552Z,21.80
2019-04-06T09:09:30.538Z,21.67
2019-04-06T09:10:30.532Z,21.47
2019-04-06T09:11:30.477Z,21.12
2019-04-06T09:12:30.473Z,21.16
2019-04-06T09:13:30.445Z,21.28
2019-04-06T09:14:30.550Z,21.58
2019-04-06T09:15:30.404Z,21.92
2019-04-06T09:16:30.610Z,22.31
2019-04-06T09:17:30.341Z,22.40
2019-04-06T09:18:30.330Z,22.39
2019-04-06T09:19:30.319Z,22.49
2019-04-06T09:20:30.380Z,22.91
2019-04-06T09:21:30.252Z,22.85
2019-04-06T09:22:30.256Z,22.33
2019-04-06T09:23:30.308Z,21.82
2019-04-06T09:24:30.204Z,22.47
2019-04-06T09:25:30.266Z,22.97
2019-04-06T09:26:30.165Z,23.10
2019-04-06T09:27:30.171Z,22.64
2019-04-06T09:28:30.124Z,22.77
2019-04-06T09:29:30.114Z,23.36
2019-04-06T09:30:30.101Z,23.73
2019-04-06T09:31:30.286Z,23.80
2019-04-06T09:32:30.091Z,23.80
2019-04-06T09:33:30.028Z,23.83
2019-04-06T09:34:31.132Z,23.42
2019-04-06T09:35:30.041Z,23.20
2019-04-06T09:36:30.043Z,22.43
2019-04-06T09:37:30.074Z,22.06
2019-04-06T09:38:29.957Z,21.17
2019-04-06T09:39:29.914Z,21.43
2019-04-06T09:40:30.274Z,21.61
2019-04-06T09:41:29.886Z,21.88
2019-04-06T09:42:29.862Z,21.79
2019-04-06T09:43:29.929Z,21.50
2019-04-06T09:44:29.833Z,20.79
2019-04-06T09:45:30.100Z,20.94
2019-04-06T09:46:29.791Z,21.09
2019-04-06T09:47:29.776Z,20.87
2019-04-06T09:48:29.748Z,20.94
2019-04-06T09:49:29.700Z,20.69
2019-04-06T09:50:29.961Z,20.57
2019-04-06T09:51:29.676Z,20.55
2019-04-06T09:52:29.645Z,20.82
2019-04-06T09:53:29.711Z,20.55
2019-04-06T09:54:29.622Z,20.14
2019-04-06T09:55:30.298Z,20.43
2019-04-06T09:56:29.569Z,20.98
2019-04-06T09:57:29.551Z,20.91
2019-04-06T09:58:29.782Z,21.32
2019-04-06T09:59:36.246Z,21.17
2019-04-06T10:00:29.512Z,21.16
2019-04-06T10:01:38.152Z,21.19
2019-04-06T10:02:29.464Z,21.06
2019-04-06T10:03:29.695Z,21.13
2019-04-06T10:04:29.444Z,21.54
2019-04-06T10:05:29.793Z,22.02
2019-04-06T10:06:32.002Z,22.05
2019-04-06T10:07:29.460Z,22.22
2019-04-06T10:08:29.323Z,22.67
2019-04-06T10:09:29.375Z,22.46
2019-04-06T10:10:29.310Z,22.36
2019-04-06T10:11:29.285Z,22.49
2019-04-06T10:12:29.250Z,22.42
2019-04-06T10:13:29.243Z,22.35
2019-04-06T10:14:29.501Z,22.68
2019-04-06T10:15:29.459Z,23.01
2019-04-06T10:16:29.308Z,23.40
2019-04-06T10:17:29.161Z,22.88
2019-04-06T10:18:29.163Z,22.03
2019-04-06T10:19:29.190Z,22.18
2019-04-06T10:20:29.136Z,22.30
2019-04-06T10:21:29.078Z,22.31
2019-04-06T10:22:29.066Z,22.42
2019-04-06T10:23:29.117Z,22.39
2019-04-06T10:24:28.985Z,22.60
2019-04-06T10:25:28.976Z,22.94
2019-04-06T10:26:28.990Z,23.69
2019-04-06T10:27:28.974Z,23.98
2019-04-06T10:28:29.034Z,23.93
2019-04-06T10:29:28.894Z,23.63
2019-04-06T10:30:29.076Z,24.00
2019-04-06T10:31:28.880Z,23.60
2019-04-06T10:32:28.836Z,23.72
2019-04-06T10:33:28.822Z,23.53
2019-04-06T10:34:29.169Z,23.10
2019-04-06T10:35:28.945Z,22.46
2019-04-06T10:36:31.297Z,22.42
2019-04-06T10:37:28.726Z,22.46
2019-04-06T10:38:28.706Z,22.85
2019-04-06T10:39:28.717Z,22.75
2019-04-06T10:40:28.700Z,22.28
2019-04-06T10:41:28.651Z,21.94
2019-04-06T10:42:29.571Z,21.50
2019-04-06T10:43:28.614Z,22.14
2019-04-06T10:44:28.591Z,22.40
2019-04-06T10:45:28.602Z,22.37
2019-04-06T10:46:28.633Z,22.52
2019-04-06T10:47:28.540Z,22.18
2019-04-06T10:48:28.512Z,22.02
2019-04-06T10:49:28.637Z,22.42
2019-04-06T10:50:28.499Z,22.67
2019-04-06T10:51:28.499Z,22.45
2019-04-06T10:52:28.625Z,22.97
2019-04-06T10:53:28.408Z,22.57
2019-04-06T10:54:28.659Z,22.64
2019-04-06T10:55:28.361Z,22.92
2019-04-06T10:56:28.581Z,23.12
2019-04-06T10:57:28.347Z,22.47
2019-04-06T10:58:28.304Z,22.17
2019-04-06T10:59:28.534Z,22.05
2019-04-06T11:00:28.270Z,22.03
2019-04-06T11:01:28.240Z,22.10
2019-04-06T11:02:28.204Z,21.82
2019-04-06T11:03:28.187Z,21.75
2019-04-06T11:04:28.397Z,22.17
2019-04-06T11:05:28.158Z,22.60
2019-04-06T11:06:28.133Z,22.49
2019-04-06T11:07:28.126Z,22.28
2019-04-06T11:08:28.087Z,22.00
2019-04-06T11:09:28.147Z,21.96
2019-04-06T11:10:28.100Z,22.33
2019-04-06T11:11:28.270Z,22.15
2019-04-06T11:12:28.023Z,22.37
2019-04-06T11:13:28.420Z,22.62
2019-04-06T11:14:28.012Z,22.95
2019-04-06T11:15:28.180Z,22.80
2019-04-06T11:16:27.941Z,23.16
2019-04-06T11:17:27.933Z,22.79
2019-04-06T11:18:28.166Z,22.91
2019-04-06T11:19:28.163Z,22.31
2019-04-06T11:20:27.839Z,22.37
2019-04-06T11:21:27.803Z,22.61
2019-04-06T11:22:27.780Z,22.46
2019-04-06T11:23:27.765Z,22.60
2019-04-06T11:24:27.742Z,23.00
2019-04-06T11:25:27.756Z,23.23
2019-04-06T11:26:27.724Z,23.65
2019-04-06T11:27:27.777Z,23.50
2019-04-06T11:28:27.672Z,23.35
2019-04-06T11:29:27.693Z,22.73
2019-04-06T11:30:27.904Z,22.65
2019-04-06T11:31:27.847Z,22.67
2019-04-06T11:32:27.579Z,22.90
2019-04-06T11:33:27.841Z,23.04
2019-04-06T11:34:27.594Z,23.36
2019-04-06T11:35:27.520Z,23.55
2019-04-06T11:36:27.505Z,23.65
2019-04-06T11:37:27.462Z,23.27
2019-04-06T11:38:27.738Z,23.01
2019-04-06T11:39:27.677Z,23.00
2019-04-06T11:40:27.397Z,23.15
2019-04-06T11:41:27.628Z,23.22
2019-04-06T11:42:27.372Z,22.90
2019-04-06T11:43:27.575Z,22.80
2019-04-06T11:44:27.324Z,22.77
2019-04-06T11:45:27.294Z,22.76
2019-04-06T11:46:27.275Z,22.57
2019-04-06T11:47:27.256Z,22.30
2019-04-06T11:48:27.244Z,22.39
2019-04-06T11:49:27.211Z,22.31
2019-04-06T11:50:27.271Z,22.05
2019-04-06T11:51:27.178Z,22.14
2019-04-06T11:52:27.193Z,22.37
2019-04-06T11:53:27.272Z,22.27
2019-04-06T11:54:27.249Z,22.22
2019-04-06T11:55:27.254Z,22.46
2019-04-06T11:56:27.060Z,22.55
2019-04-06T11:57:27.098Z,22.91
2019-04-06T11:58:27.080Z,22.61
2019-04-06T11:59:26.993Z,22.47
2019-04-06T12:00:28.046Z,22.51
2019-04-06T12:01:27.007Z,22.31
2019-04-06T12:02:27.129Z,22.14
2019-04-06T12:03:26.910Z,21.92
2019-04-06T12:04:27.146Z,21.65
2019-04-06T12:05:27.189Z,21.88
2019-04-06T12:06:26.838Z,21.68
2019-04-06T12:07:26.822Z,21.47
2019-04-06T12:08:26.853Z,21.16
2019-04-06T12:09:27.799Z,21.52
2019-04-06T12:12:23.461Z,22.03
2019-04-06T12:13:23.559Z,21.98
2019-04-06T12:15:16.018Z,21.58
2019-04-06T12:16:17.006Z,21.35
2019-04-06T12:18:17.472Z,21.56
2019-04-06T12:24:32.247Z,21.49
2019-04-06T12:28:44.347Z,22.02
2019-04-06T12:29:43.527Z,22.09
2019-04-06T12:31:37.621Z,21.96
2019-04-06T12:32:37.882Z,21.80
2019-04-06T12:34:31.067Z,21.46
2019-04-06T12:35:30.737Z,21.53
2019-04-06T12:37:25.257Z,21.61
2019-04-06T12:38:25.497Z,21.80
2019-04-06T12:40:18.701Z,21.61
2019-04-06T12:41:18.284Z,21.43
2019-04-06T12:43:11.425Z,21.64
2019-04-06T12:44:11.270Z,21.71
2019-04-06T12:45:11.598Z,22.03
2019-04-06T12:46:11.486Z,21.83
2019-04-06T12:47:11.269Z,21.62
2019-04-06T12:48:11.322Z,21.82
2019-04-06T12:49:11.277Z,22.17
2019-04-06T12:50:11.301Z,22.49
2019-04-06T12:51:11.216Z,22.55
2019-04-06T12:52:11.287Z,22.46
2019-04-06T12:53:11.436Z,22.30
2019-04-06T12:54:11.155Z,21.86
2019-04-06T12:55:11.171Z,21.80
2019-04-06T12:56:11.130Z,21.90
2019-04-06T12:57:11.335Z,22.10
2019-04-06T12:58:11.213Z,22.21
2019-04-06T12:59:11.128Z,22.21
2019-04-06T13:00:09.912Z,21.69
2019-04-06T13:01:10.923Z,21.52
2019-04-06T13:02:11.165Z,21.84
2019-04-06T13:03:10.501Z,21.69
2019-04-06T13:04:10.899Z,21.71
2019-04-06T13:05:12.346Z,21.53
2019-04-06T13:07:10.693Z,21.56
2019-04-06T13:08:10.307Z,21.68
2019-04-06T13:10:07.334Z,21.98
2019-04-06T13:11:04.831Z,22.00
2019-04-06T13:12:58.580Z,21.56
2019-04-06T13:13:58.552Z,21.71
2019-04-06T13:15:53.189Z,22.06
2019-04-06T13:16:51.972Z,22.06
2019-04-06T13:18:46.420Z,21.88
2019-04-06T13:19:45.238Z,21.68
2019-04-06T13:21:40.851Z,21.58
2019-04-06T13:22:39.606Z,21.56
2019-04-06T13:24:34.022Z,21.69
2019-04-06T13:25:33.136Z,21.58
2019-04-06T13:27:26.588Z,22.03
2019-04-06T13:28:26.411Z,22.03
2019-04-06T13:30:19.032Z,21.62
2019-04-06T13:31:20.134Z,21.67
2019-04-06T13:33:13.171Z,21.84
2019-04-06T13:34:11.958Z,21.54
2019-04-06T13:36:05.623Z,21.54
2019-04-06T13:37:05.756Z,21.54
2019-04-06T13:38:59.268Z,21.94
2019-04-06T13:39:57.583Z,22.00
2019-04-06T13:41:51.934Z,21.68
2019-04-06T13:42:51.396Z,21.47
2019-04-06T13:44:45.300Z,21.53
2019-04-06T13:45:44.124Z,21.80
2019-04-06T13:47:41.398Z,21.65
2019-04-06T13:48:41.986Z,21.67
2019-04-06T13:50:35.055Z,21.69
2019-04-06T13:51:33.247Z,21.64
2019-04-06T13:53:27.979Z,21.59
2019-04-06T13:54:27.902Z,21.49
2019-04-06T13:56:22.560Z,21.25
2019-04-06T13:57:20.997Z,21.25
2019-04-06T13:59:14.788Z,21.27
2019-04-06T14:00:15.260Z,21.09
2019-04-06T14:02:09.307Z,21.35
2019-04-06T14:03:06.696Z,20.89
2019-04-06T14:05:01.699Z,21.13
2019-04-06T14:06:01.131Z,21.22
2019-04-06T14:07:57.060Z,21.52
2019-04-06T14:10:53.340Z,21.01
2019-04-06T14:11:51.976Z,21.06
2019-04-06T14:13:45.885Z,21.44
2019-04-06T14:14:45.412Z,21.42
2019-04-06T14:16:39.800Z,21.25
2019-04-06T14:17:40.157Z,21.25
2019-04-06T14:18:39.662Z,21.58
2019-04-06T14:19:38.279Z,21.68
2019-04-06T14:20:39.609Z,21.79
2019-04-06T14:21:39.345Z,21.79
2019-04-06T14:22:39.725Z,21.49
2019-04-06T14:23:39.436Z,21.49
2019-04-06T14:24:39.264Z,21.53
2019-04-06T14:25:39.505Z,21.62
2019-04-06T14:26:38.167Z,21.69
2019-04-06T14:27:39.352Z,21.58
2019-04-06T14:28:38.642Z,21.43
2019-04-06T14:29:38.601Z,21.17
2019-04-06T14:30:38.634Z,21.17
2019-04-06T14:31:38.620Z,20.92
2019-04-06T14:32:39.056Z,20.94
2019-04-06T14:33:39.014Z,21.10
2019-04-06T14:34:40.471Z,20.94
2019-04-06T14:35:39.079Z,20.85
2019-04-06T14:36:39.051Z,20.77
2019-04-06T14:38:32.245Z,21.03
2019-04-06T14:39:32.185Z,21.06
2019-04-06T14:41:25.142Z,21.37
2019-04-06T14:42:24.370Z,21.38
2019-04-06T14:44:18.720Z,21.10
2019-04-06T14:45:19.182Z,21.28
2019-04-06T14:47:12.666Z,21.14
2019-04-06T14:48:11.114Z,21.19
2019-04-06T14:50:07.075Z,21.17
2019-04-06T14:51:05.730Z,21.12
2019-04-06T14:52:59.981Z,21.13
2019-04-06T14:53:58.864Z,21.01
2019-04-06T14:55:53.561Z,21.22
2019-04-06T14:56:53.089Z,21.47
2019-04-06T14:58:46.113Z,21.28
2019-04-06T14:59:44.830Z,21.01
2019-04-06T15:01:48.935Z,21.21
2019-04-06T15:02:38.534Z,21.01
2019-04-06T15:04:34.390Z,20.80
2019-04-06T15:05:33.760Z,20.52
2019-04-06T15:07:27.510Z,20.02
2019-04-06T15:08:26.319Z,20.06
2019-04-06T15:10:19.739Z,19.91
2019-04-06T15:11:20.552Z,20.10
2019-04-06T15:13:13.096Z,20.05
2019-04-06T15:14:13.364Z,19.84
2019-04-06T15:15:13.762Z,19.91
2019-04-06T15:16:12.724Z,20.03
2019-04-06T15:17:12.883Z,19.99
2019-04-06T15:18:13.284Z,19.94
2019-04-06T15:19:11.991Z,19.88
2019-04-06T15:20:13.475Z,19.88
2019-04-06T15:21:13.228Z,19.94
2019-04-06T15:23:14.160Z,19.94
2019-04-06T15:24:13.323Z,20.02
2019-04-06T15:25:13.505Z,19.94
2019-04-06T15:26:11.921Z,20.03
2019-04-06T15:27:11.396Z,20.02
2019-04-06T15:28:10.842Z,19.98
2019-04-06T15:29:10.853Z,19.91
2019-04-06T15:30:11.033Z,19.92
2019-04-06T15:31:11.133Z,19.78
2019-04-06T15:32:11.006Z,19.83
2019-04-06T15:33:11.144Z,19.87
2019-04-06T15:34:10.777Z,19.77
2019-04-06T15:35:10.938Z,19.71
2019-04-06T15:36:10.649Z,19.77
2019-04-06T15:37:10.606Z,19.83
2019-04-06T15:38:10.552Z,19.81
2019-04-06T15:39:10.567Z,19.87
2019-04-06T15:40:10.506Z,19.83
2019-04-06T15:41:11.137Z,19.76
2019-04-06T15:42:10.577Z,19.77
2019-04-06T15:43:10.423Z,19.81